createdAt,value
2018-05-31T00:01:23.419Z,23.23
2018-05-31T00:03:50.131Z,22.83
2018-05-31T00:06:21.765Z,19.20
2018-05-31T00:08:49.214Z,22.30
2018-05-31T00:11:16.671Z,23.30
2018-05-31T00:13:43.376Z,24.27
2018-05-31T00:16:10.066Z,218.20
2018-05-31T00:18:36.778Z,371.70
2018-05-31T00:21:03.855Z,563.30
2018-05-31T00:23:30.547Z,409.23
2018-05-31T00:25:57.253Z,178.80
2018-05-31T00:28:25.604Z,202.47
2018-05-31T00:30:52.371Z,298.67
2018-05-31T00:33:19.091Z,653.00
2018-05-31T00:35:45.786Z,638.03
2018-05-31T00:38:12.599Z,547.87
2018-05-31T00:40:39.319Z,619.30
2018-05-31T00:43:06.136Z,164.30
2018-05-31T00:45:33.619Z,49.67
2018-05-31T00:48:00.326Z,28.67
2018-05-31T00:50:27.903Z,21.30
2018-05-31T00:52:54.586Z,24.53
2018-05-31T00:55:39.960Z,28.57
2018-05-31T00:58:06.666Z,27.00
2018-05-31T01:00:34.989Z,21.03
2018-05-31T01:03:02.234Z,21.30
2018-05-31T01:05:29.085Z,24.23
2018-05-31T01:07:55.823Z,20.57
2018-05-31T01:10:22.539Z,18.03
2018-05-31T01:12:49.267Z,14.67
2018-05-31T01:15:15.994Z,17.97
2018-05-31T01:17:42.726Z,17.03
2018-05-31T01:20:10.159Z,19.70
2018-05-31T01:22:36.874Z,15.43
2018-05-31T01:25:03.629Z,15.20
2018-05-31T01:27:30.334Z,14.57
2018-05-31T01:29:57.080Z,16.33
2018-05-31T01:32:23.783Z,17.47
2018-05-31T01:34:50.494Z,16.50
2018-05-31T01:37:17.994Z,14.67
2018-05-31T01:39:44.734Z,19.37
2018-05-31T01:42:11.704Z,16.37
2018-05-31T01:44:38.421Z,536.93
2018-05-31T01:47:05.126Z,164.53
2018-05-31T01:49:32.581Z,628.87
2018-05-31T01:52:00.015Z,203.87
2018-05-31T01:54:26.719Z,329.47
2018-05-31T01:56:53.443Z,677.00
2018-05-31T01:59:20.134Z,508.87
2018-05-31T02:01:46.832Z,65.53
2018-05-31T02:04:13.518Z,394.63
2018-05-31T02:06:40.218Z,328.30
2018-05-31T02:09:06.919Z,217.33
2018-05-31T02:11:34.359Z,244.97
2018-05-31T02:14:01.069Z,187.77
2018-05-31T02:16:27.813Z,150.20
2018-05-31T02:18:54.519Z,184.13
2018-05-31T02:21:21.236Z,126.83
2018-05-31T02:23:47.949Z,112.17
2018-05-31T02:26:14.647Z,82.43
2018-05-31T02:28:41.361Z,116.97
2018-05-31T02:31:08.079Z,115.13
2018-05-31T02:33:35.554Z,72.33
2018-05-31T02:36:02.241Z,112.40
2018-05-31T02:38:28.934Z,97.73
2018-05-31T02:40:55.645Z,47.97
2018-05-31T02:43:23.082Z,31.53
2018-05-31T02:45:49.791Z,23.73
2018-05-31T02:48:16.491Z,9.23
2018-05-31T02:50:43.919Z,8.80
2018-05-31T02:53:10.631Z,22.80
2018-05-31T02:55:37.311Z,20.53
2018-05-31T02:58:04.779Z,12.40
2018-05-31T03:00:31.471Z,12.47
2018-05-31T03:02:58.173Z,11.97
2018-05-31T03:05:24.901Z,15.73
2018-05-31T03:07:51.622Z,16.40
2018-05-31T03:10:19.080Z,12.03
2018-05-31T03:12:46.512Z,14.23
2018-05-31T03:15:13.194Z,11.83
2018-05-31T03:17:39.886Z,8.33
2018-05-31T03:20:06.587Z,14.03
2018-05-31T03:22:33.281Z,11.93
2018-05-31T03:24:59.979Z,16.60
2018-05-31T03:27:26.688Z,25.67
2018-05-31T03:29:54.114Z,11.73
2018-05-31T03:32:21.632Z,59.43
2018-05-31T03:34:48.364Z,43.63
2018-05-31T03:37:15.056Z,51.70
2018-05-31T03:39:41.802Z,83.60
2018-05-31T03:42:09.238Z,129.87
2018-05-31T03:44:35.941Z,306.20
2018-05-31T03:47:02.656Z,351.23
2018-05-31T03:49:29.358Z,208.27
2018-05-31T03:51:56.066Z,239.73
2018-05-31T03:54:22.766Z,300.17
2018-05-31T03:56:50.197Z,120.10
2018-05-31T03:59:16.906Z,129.00
2018-05-31T04:01:43.647Z,81.33
2018-05-31T04:04:10.354Z,192.77
2018-05-31T04:06:37.049Z,137.63
2018-05-31T04:09:06.794Z,124.57
2018-05-31T04:11:34.228Z,137.67
2018-05-31T04:14:01.707Z,44.63
2018-05-31T04:16:28.399Z,64.27
2018-05-31T04:18:55.123Z,33.03
2018-05-31T04:21:21.823Z,86.70
2018-05-31T04:23:49.255Z,110.10
2018-05-31T04:26:16.759Z,160.13
2018-05-31T04:28:43.459Z,192.00
2018-05-31T04:31:11.667Z,231.30
2018-05-31T04:33:38.455Z,211.47
2018-05-31T04:36:05.152Z,253.97
2018-05-31T04:38:31.871Z,364.73
2018-05-31T04:40:58.705Z,198.10
2018-05-31T04:43:25.386Z,255.83
2018-05-31T04:45:52.079Z,374.90
2018-05-31T04:48:19.516Z,561.47
2018-05-31T04:50:47.011Z,239.50
2018-05-31T04:53:13.691Z,77.37
2018-05-31T04:55:40.414Z,9.73
2018-05-31T04:58:07.111Z,8.83
2018-05-31T05:00:34.596Z,14.47
2018-05-31T05:03:01.329Z,11.53
2018-05-31T05:05:28.103Z,40.43
2018-05-31T05:07:54.952Z,7.70
2018-05-31T05:10:21.653Z,7.07
2018-05-31T05:12:48.358Z,9.10
2018-05-31T05:15:15.840Z,8.47
2018-05-31T05:17:42.569Z,8.73
2018-05-31T05:20:09.991Z,9.50
2018-05-31T05:22:36.716Z,8.03
2018-05-31T05:25:03.433Z,6.43
2018-05-31T05:27:30.306Z,8.27
2018-05-31T05:29:57.054Z,7.90
2018-05-31T05:38:32.874Z,10.90
2018-05-31T05:41:00.718Z,9.93
2018-05-31T05:43:27.812Z,9.33
2018-05-31T05:45:54.906Z,8.43
2018-05-31T05:48:21.966Z,8.93
2018-05-31T05:50:49.093Z,9.33
2018-05-31T05:53:16.169Z,10.90
2018-05-31T05:55:43.298Z,14.30
2018-05-31T05:58:11.439Z,7.80
2018-05-31T06:00:39.261Z,8.30
2018-05-31T06:03:06.319Z,26.87
2018-05-31T06:05:33.356Z,35.37
2018-05-31T06:08:00.437Z,35.30
2018-05-31T06:10:28.292Z,32.33
2018-05-31T06:12:56.199Z,36.27
2018-05-31T06:15:23.253Z,36.03
2018-05-31T06:17:50.319Z,28.10
2018-05-31T06:20:17.624Z,26.83
2018-05-31T06:22:45.423Z,26.73
2018-05-31T06:25:12.504Z,26.43
2018-05-31T06:27:39.499Z,21.43
2018-05-31T06:30:06.661Z,27.13
2018-05-31T06:32:39.762Z,20.43
2018-05-31T06:35:07.071Z,20.37
2018-05-31T06:37:34.187Z,20.73
2018-05-31T06:40:01.203Z,22.43
2018-05-31T06:42:28.194Z,17.00
2018-05-31T06:44:55.229Z,17.97
2018-05-31T06:47:22.247Z,18.20
2018-05-31T06:49:49.301Z,14.63
2018-05-31T06:52:16.326Z,14.53
2018-05-31T06:54:44.101Z,13.10
2018-05-31T06:57:11.138Z,15.17
2018-05-31T06:59:38.211Z,13.83
2018-05-31T07:02:05.249Z,17.53
2018-05-31T07:04:32.292Z,14.90
2018-05-31T07:07:05.261Z,16.60
2018-05-31T07:09:33.215Z,16.13
2018-05-31T07:12:00.257Z,12.13
2018-05-31T07:14:27.290Z,15.73
2018-05-31T07:16:54.407Z,10.27
2018-05-31T07:19:27.351Z,11.13
2018-05-31T07:21:54.627Z,14.63
2018-05-31T07:24:21.639Z,14.40
2018-05-31T07:26:48.639Z,10.35
2018-05-31T07:29:15.669Z,15.88
2018-05-31T07:31:43.589Z,13.63
2018-05-31T07:34:10.632Z,15.10
2018-05-31T07:36:38.624Z,13.27
2018-05-31T07:39:05.697Z,13.93
2018-05-31T07:41:33.494Z,15.50
2018-05-31T07:44:00.556Z,13.93
2018-05-31T07:46:27.583Z,12.93
2018-05-31T07:48:54.619Z,14.87
2018-05-31T07:51:28.419Z,16.98
2018-05-31T07:53:56.186Z,17.30
2018-05-31T07:56:23.211Z,12.40
2018-05-31T07:58:50.211Z,12.10
2018-05-31T08:01:17.260Z,11.80
2018-05-31T08:03:44.276Z,16.65
2018-05-31T08:06:12.017Z,15.50
2018-05-31T08:08:39.056Z,12.00
2018-05-31T08:11:06.115Z,12.77
2018-05-31T08:13:39.944Z,11.48
2018-05-31T08:16:07.687Z,13.40
2018-05-31T08:18:35.455Z,14.43
2018-05-31T08:21:03.259Z,10.55
2018-05-31T08:23:30.307Z,9.07
2018-05-31T08:25:57.324Z,10.93
2018-05-31T08:28:25.118Z,12.45
2018-05-31T08:30:52.103Z,9.45
2018-05-31T08:33:19.080Z,13.10
2018-05-31T08:35:46.862Z,11.60
2018-05-31T08:38:13.901Z,10.70
2018-05-31T08:40:40.924Z,11.55
2018-05-31T08:43:09.662Z,9.50
2018-05-31T08:45:36.683Z,11.45
2018-05-31T08:48:03.706Z,8.93
2018-05-31T08:50:30.729Z,11.27
2018-05-31T08:52:57.769Z,11.12
2018-05-31T08:55:24.791Z,10.55
2018-05-31T08:57:51.782Z,13.40
2018-05-31T09:00:18.797Z,12.95
2018-05-31T09:02:45.796Z,12.23
2018-05-31T09:05:13.275Z,10.63
2018-05-31T09:07:40.374Z,8.55
2018-05-31T09:10:07.417Z,9.32
2018-05-31T09:12:34.477Z,10.00
2018-05-31T09:15:01.486Z,9.45
2018-05-31T09:17:28.497Z,9.48
2018-05-31T09:19:57.054Z,9.18
2018-05-31T09:22:24.044Z,9.27
2018-05-31T09:24:51.829Z,10.10
2018-05-31T09:27:18.852Z,9.50
2018-05-31T09:29:46.606Z,9.32
2018-05-31T09:32:14.501Z,8.90
2018-05-31T09:34:41.574Z,5.60
2018-05-31T09:37:08.582Z,7.80
2018-05-31T09:39:36.320Z,12.73
2018-05-31T09:42:04.217Z,8.18
2018-05-31T09:44:32.850Z,6.03
2018-05-31T09:46:59.856Z,7.85
2018-05-31T09:49:27.799Z,5.62
2018-05-31T09:51:54.862Z,11.50
2018-05-31T09:54:22.691Z,8.23
2018-05-31T09:56:49.734Z,7.40
2018-05-31T09:59:16.742Z,7.93
2018-05-31T10:01:43.742Z,8.05
2018-05-31T10:04:10.749Z,7.22
2018-05-31T10:06:37.762Z,7.05
2018-05-31T10:09:04.884Z,6.30
2018-05-31T10:11:31.872Z,9.50
2018-05-31T10:13:58.869Z,9.57
2018-05-31T10:16:25.866Z,6.90
2018-05-31T10:18:53.595Z,11.30
2018-05-31T10:21:20.627Z,11.15
2018-05-31T10:23:47.653Z,11.77
2018-05-31T10:26:14.654Z,7.20
2018-05-31T10:28:41.676Z,7.82
2018-05-31T10:31:08.694Z,9.38
2018-05-31T10:33:35.714Z,8.07
2018-05-31T10:36:03.552Z,11.68
2018-05-31T10:38:30.607Z,8.25
2018-05-31T10:40:58.503Z,7.72
2018-05-31T10:43:25.622Z,9.40
2018-05-31T10:45:52.665Z,11.90
2018-05-31T10:48:19.699Z,11.40
2018-05-31T10:50:46.716Z,9.07
2018-05-31T10:53:13.755Z,11.50
2018-05-31T10:55:40.805Z,8.68
2018-05-31T10:58:21.146Z,8.27
2018-05-31T11:00:48.217Z,8.98
2018-05-31T11:03:15.290Z,9.48
2018-05-31T11:05:42.307Z,7.40
2018-05-31T11:08:09.316Z,6.72
2018-05-31T11:10:36.324Z,9.40
2018-05-31T11:13:03.361Z,12.85
2018-05-31T11:15:36.437Z,5.20
2018-05-31T11:18:03.535Z,9.02
2018-05-31T11:20:36.454Z,8.57
2018-05-31T11:23:04.305Z,11.48
2018-05-31T11:25:31.437Z,7.85
2018-05-31T11:27:58.453Z,8.18
2018-05-31T11:30:25.447Z,7.80
2018-05-31T11:32:52.517Z,7.72
2018-05-31T11:35:20.290Z,9.63
2018-05-31T11:37:47.307Z,11.93
2018-05-31T11:40:14.345Z,11.27
2018-05-31T11:42:41.440Z,9.77
2018-05-31T11:45:20.640Z,14.40
2018-05-31T11:47:48.982Z,12.00
2018-05-31T11:50:16.004Z,14.93
2018-05-31T11:52:43.080Z,13.45
2018-05-31T11:55:10.195Z,15.65
2018-05-31T11:57:37.242Z,16.08
2018-05-31T12:00:04.512Z,12.40
2018-05-31T12:02:31.615Z,9.35
2018-05-31T12:04:58.648Z,10.10
2018-05-31T12:07:25.927Z,7.18
2018-05-31T12:09:53.812Z,12.02
2018-05-31T12:12:20.795Z,14.55
2018-05-31T12:14:47.810Z,10.27
2018-05-31T12:17:15.757Z,12.77
2018-05-31T12:19:43.604Z,13.02
2018-05-31T12:22:10.715Z,11.48
2018-05-31T12:24:37.767Z,10.43
2018-05-31T12:27:04.930Z,12.52
2018-05-31T12:29:31.979Z,12.60
2018-05-31T12:31:59.782Z,12.68
2018-05-31T12:34:27.514Z,10.85
2018-05-31T12:36:54.656Z,9.52
2018-05-31T12:39:21.670Z,14.32
2018-05-31T12:41:48.769Z,9.30
2018-05-31T12:44:15.809Z,10.38
2018-05-31T12:46:42.968Z,11.68
2018-05-31T12:49:10.860Z,14.35
2018-05-31T12:51:38.907Z,12.30
2018-05-31T12:54:06.065Z,11.90
2018-05-31T12:56:33.101Z,8.32
2018-05-31T12:59:00.191Z,11.80
2018-05-31T13:01:27.245Z,10.43
2018-05-31T13:03:54.279Z,12.50
2018-05-31T13:06:21.337Z,11.18
2018-05-31T13:08:48.359Z,10.52
2018-05-31T13:11:15.439Z,11.55
2018-05-31T13:13:42.483Z,11.90
2018-05-31T13:16:09.491Z,8.50
2018-05-31T13:18:36.515Z,14.38
2018-05-31T13:21:03.569Z,13.52
2018-05-31T13:23:30.571Z,11.68
2018-05-31T13:25:57.574Z,12.98
2018-05-31T13:28:24.626Z,13.95
2018-05-31T13:30:51.651Z,12.93
2018-05-31T13:33:18.757Z,13.82
2018-05-31T13:35:46.489Z,13.15
2018-05-31T13:38:13.541Z,12.23
2018-05-31T13:40:40.563Z,15.30
2018-05-31T13:43:07.929Z,11.07
2018-05-31T13:45:35.039Z,12.57
2018-05-31T13:48:07.974Z,14.25
2018-05-31T13:50:36.599Z,12.15
2018-05-31T13:53:04.524Z,15.13
2018-05-31T13:55:31.566Z,13.82
2018-05-31T13:57:58.619Z,12.30
2018-05-31T14:00:25.696Z,12.10
2018-05-31T14:02:54.253Z,14.43
2018-05-31T14:05:21.371Z,13.77
2018-05-31T14:07:49.100Z,10.60
2018-05-31T14:10:16.757Z,11.57
2018-05-31T14:12:43.804Z,20.95
2018-05-31T14:15:10.887Z,20.42
2018-05-31T14:17:38.012Z,11.07
2018-05-31T14:20:05.125Z,16.12
2018-05-31T14:22:38.121Z,14.65
2018-05-31T14:25:05.197Z,13.13
2018-05-31T14:27:32.294Z,15.32
2018-05-31T14:29:59.457Z,15.80
2018-05-31T14:32:26.619Z,13.18
2018-05-31T14:34:53.663Z,17.62
2018-05-31T14:37:20.719Z,14.90
2018-05-31T14:39:49.189Z,13.48
2018-05-31T14:42:16.292Z,12.02
2018-05-31T14:44:43.362Z,14.35
2018-05-31T14:47:10.374Z,12.73
2018-05-31T14:49:37.387Z,13.60
2018-05-31T14:52:05.496Z,16.35
2018-05-31T14:54:32.499Z,9.48
2018-05-31T14:56:59.602Z,9.80
2018-05-31T14:59:26.692Z,13.07
2018-05-31T15:01:53.727Z,11.68
2018-05-31T15:04:20.749Z,12.27
2018-05-31T15:06:47.759Z,14.45
2018-05-31T15:09:15.507Z,11.05
2018-05-31T15:11:43.288Z,10.43
2018-05-31T15:14:10.277Z,10.18
2018-05-31T15:16:37.299Z,11.93
2018-05-31T15:19:05.085Z,15.40
2018-05-31T15:21:32.218Z,12.05
2018-05-31T15:24:00.725Z,14.25
2018-05-31T15:26:27.702Z,14.15
2018-05-31T15:29:00.560Z,10.57
2018-05-31T15:31:27.581Z,14.18
2018-05-31T15:33:55.355Z,12.00
2018-05-31T15:36:22.393Z,11.82
2018-05-31T15:38:50.149Z,11.10
2018-05-31T15:41:23.950Z,16.23
2018-05-31T15:43:51.861Z,10.32
2018-05-31T15:46:18.902Z,12.98
2018-05-31T15:48:46.035Z,13.52
2018-05-31T15:51:13.831Z,17.33
2018-05-31T15:53:40.899Z,14.35
2018-05-31T15:56:07.933Z,14.13
2018-05-31T15:58:34.952Z,14.35
2018-05-31T16:01:07.884Z,14.50
2018-05-31T16:03:34.915Z,14.52
2018-05-31T16:06:01.995Z,13.18
2018-05-31T16:08:35.094Z,14.35
2018-05-31T16:11:02.916Z,12.73
2018-05-31T16:13:29.950Z,11.93
2018-05-31T16:15:56.922Z,12.25
2018-05-31T16:18:29.839Z,12.30
2018-05-31T16:20:57.614Z,15.55
2018-05-31T16:23:25.411Z,13.10
2018-05-31T16:25:52.494Z,18.05
2018-05-31T16:28:19.521Z,13.48
2018-05-31T16:30:47.274Z,11.43
2018-05-31T16:33:14.303Z,14.27
2018-05-31T16:35:41.287Z,16.87
2018-05-31T16:38:08.351Z,14.25
2018-05-31T16:40:35.372Z,12.88
2018-05-31T16:43:02.430Z,13.13
2018-05-31T16:45:29.484Z,19.05
2018-05-31T16:48:02.707Z,14.45
2018-05-31T16:50:29.768Z,11.35
2018-05-31T16:52:57.501Z,12.20
2018-05-31T16:55:24.523Z,16.05
2018-05-31T16:57:51.555Z,13.77
2018-05-31T17:00:18.569Z,18.52
2018-05-31T17:02:46.414Z,17.80
2018-05-31T17:05:13.499Z,15.52
2018-05-31T17:07:40.585Z,15.35
2018-05-31T17:10:07.633Z,16.85
2018-05-31T17:12:34.659Z,17.37
2018-05-31T17:15:01.715Z,13.57
2018-05-31T17:17:28.732Z,15.33
2018-05-31T17:19:56.531Z,13.77
2018-05-31T17:22:23.542Z,11.77
2018-05-31T17:24:51.325Z,16.63
2018-05-31T17:27:18.349Z,14.57
2018-05-31T17:29:46.123Z,17.00
2018-05-31T17:32:14.650Z,18.90
2018-05-31T17:34:41.666Z,12.63
2018-05-31T17:37:08.780Z,14.40
2018-05-31T17:39:36.550Z,15.10
2018-05-31T17:42:04.384Z,14.60
2018-05-31T17:44:31.439Z,12.40
2018-05-31T17:46:58.446Z,14.50
2018-05-31T17:49:25.510Z,16.40
2018-05-31T17:51:52.617Z,16.23
2018-05-31T17:54:20.404Z,15.10
2018-05-31T17:56:47.421Z,18.17
2018-05-31T17:59:14.472Z,14.73
2018-05-31T18:01:42.269Z,21.10
2018-05-31T18:04:09.262Z,23.57
2018-05-31T18:06:36.261Z,16.87
2018-05-31T18:09:03.509Z,17.77
2018-05-31T18:11:30.522Z,15.10
2018-05-31T18:13:58.306Z,19.73
2018-05-31T18:16:25.954Z,16.67
2018-05-31T18:18:59.771Z,16.30
2018-05-31T18:21:27.619Z,20.10
2018-05-31T18:23:54.609Z,15.70
2018-05-31T18:26:21.624Z,18.17
2018-05-31T18:28:48.643Z,15.67
2018-05-31T18:31:15.658Z,15.57
2018-05-31T18:33:42.774Z,16.33
2018-05-31T18:36:10.541Z,15.03
2018-05-31T18:38:38.299Z,16.03
2018-05-31T18:41:06.100Z,17.73
2018-05-31T18:43:33.170Z,19.77
2018-05-31T18:46:00.174Z,21.27
2018-05-31T18:48:33.769Z,22.57
2018-05-31T18:51:01.585Z,16.30
2018-05-31T18:53:28.634Z,16.57
2018-05-31T18:55:55.742Z,15.37
2018-05-31T18:58:23.661Z,21.93
2018-05-31T19:00:50.740Z,18.33
2018-05-31T19:03:18.533Z,16.03
2018-05-31T19:05:45.522Z,18.33
2018-05-31T19:08:12.524Z,21.10
2018-05-31T19:10:39.542Z,18.00
2018-05-31T19:13:13.222Z,21.20
2018-05-31T19:15:46.298Z,22.70
2018-05-31T19:18:19.309Z,18.53
2018-05-31T19:20:53.331Z,21.17
2018-05-31T19:23:20.329Z,19.90
2018-05-31T19:25:47.371Z,19.10
2018-05-31T19:28:14.410Z,20.37
2018-05-31T19:30:47.502Z,22.47
2018-05-31T19:33:14.603Z,18.80
2018-05-31T19:35:47.639Z,17.77
2018-05-31T19:38:15.439Z,15.43
2018-05-31T19:40:42.621Z,16.33
2018-05-31T19:43:16.432Z,17.23
2018-05-31T19:45:44.342Z,18.37
2018-05-31T19:48:11.478Z,19.70
2018-05-31T19:50:38.659Z,22.33
2018-05-31T19:53:12.475Z,18.50
2018-05-31T19:55:39.849Z,16.83
2018-05-31T19:58:13.638Z,20.20
2018-05-31T20:00:47.549Z,19.67
2018-05-31T20:03:22.680Z,24.23
2018-05-31T20:05:53.260Z,22.23
2018-05-31T20:08:20.385Z,19.13
2018-05-31T20:10:47.487Z,22.07
2018-05-31T20:13:14.489Z,19.40
2018-05-31T20:15:41.530Z,19.37
2018-05-31T20:18:14.614Z,20.07
2018-05-31T20:20:54.125Z,15.40
2018-05-31T20:23:21.138Z,16.07
2018-05-31T20:25:48.170Z,18.80
2018-05-31T20:28:15.989Z,17.87
2018-05-31T20:30:43.136Z,19.97
2018-05-31T20:35:42.794Z,17.40
2018-05-31T20:38:15.867Z,15.73
2018-05-31T20:40:42.848Z,16.73
2018-05-31T20:43:10.628Z,18.10
2018-05-31T20:45:43.611Z,21.03
2018-05-31T20:48:10.654Z,21.43
2018-05-31T20:50:38.425Z,19.93
2018-05-31T20:53:05.515Z,18.07
2018-05-31T20:55:32.580Z,16.53
2018-05-31T20:57:59.572Z,21.67
2018-05-31T21:00:26.606Z,17.57
2018-05-31T21:02:54.367Z,19.87
2018-05-31T21:05:22.135Z,18.80
2018-05-31T21:07:49.172Z,16.63
2018-05-31T21:10:16.905Z,20.20
2018-05-31T21:12:43.957Z,15.63
2018-05-31T21:15:11.970Z,18.27
2018-05-31T21:17:44.954Z,15.20
2018-05-31T21:20:12.006Z,16.17
2018-05-31T21:22:39.062Z,20.10
2018-05-31T21:25:06.067Z,16.77
2018-05-31T21:27:33.107Z,16.53
2018-05-31T21:30:00.144Z,15.87
2018-05-31T21:32:27.232Z,13.70
2018-05-31T21:34:54.307Z,21.43
2018-05-31T21:37:21.399Z,17.73
2018-05-31T21:39:48.590Z,17.50
2018-05-31T21:42:15.647Z,18.93
2018-05-31T21:44:42.674Z,19.07
2018-05-31T21:47:16.525Z,17.50
2018-05-31T21:49:43.559Z,17.07
2018-05-31T21:52:10.557Z,19.23
2018-05-31T21:54:37.596Z,14.43
2018-05-31T21:57:04.681Z,17.03
2018-05-31T21:59:32.462Z,15.00
2018-05-31T22:01:59.512Z,14.40
2018-05-31T22:04:32.428Z,16.50
2018-05-31T22:06:59.457Z,14.90
2018-05-31T22:09:27.074Z,14.67
2018-05-31T22:11:54.919Z,12.60
2018-05-31T22:14:21.969Z,12.20
2018-05-31T22:16:49.062Z,17.07
2018-05-31T22:19:16.085Z,15.03
2018-05-31T22:21:43.888Z,15.87
2018-05-31T22:24:10.921Z,14.17
2018-05-31T22:26:37.949Z,14.87
2018-05-31T22:29:05.729Z,15.30
2018-05-31T22:31:38.631Z,17.53
2018-05-31T22:34:05.672Z,13.33
2018-05-31T22:36:32.743Z,14.57
2018-05-31T22:38:59.837Z,13.97
2018-05-31T22:41:27.642Z,14.40
2018-05-31T22:43:54.662Z,14.93
2018-05-31T22:46:21.691Z,12.73
2018-05-31T22:48:49.500Z,15.50
2018-05-31T22:51:16.516Z,16.40
2018-05-31T22:53:44.351Z,12.90
2018-05-31T22:56:11.484Z,12.77
2018-05-31T22:58:38.532Z,12.10
2018-05-31T23:01:05.937Z,15.90
2018-05-31T23:03:33.009Z,19.03
2018-05-31T23:06:00.009Z,13.97
2018-05-31T23:08:32.993Z,14.27
2018-05-31T23:11:00.024Z,11.47
2018-05-31T23:13:27.079Z,16.97
2018-05-31T23:15:54.139Z,14.47
2018-05-31T23:18:21.203Z,11.47
2018-05-31T23:20:48.980Z,14.70
2018-05-31T23:23:16.709Z,13.20
2018-05-31T23:25:43.696Z,11.33
2018-05-31T23:28:11.495Z,13.60
2018-05-31T23:30:38.516Z,13.40
2018-05-31T23:33:05.558Z,13.73
2018-05-31T23:35:33.442Z,13.53
2018-05-31T23:38:00.471Z,17.13
2018-05-31T23:40:28.264Z,10.03
2018-05-31T23:42:55.301Z,14.30
2018-05-31T23:45:22.514Z,13.77
2018-05-31T23:47:49.569Z,15.00
2018-05-31T23:50:17.340Z,15.90
2018-05-31T23:52:44.326Z,13.07
2018-05-31T23:55:12.106Z,13.63
2018-05-31T23:57:41.073Z,15.30
